Time;durP1;ratioP1;P1;durP2;ratioP2;P2;SDS_P1;SDS_P2;PMS_P1;PMS_P2;Temp;Humidity;BMP_temperature;BMP_pressure;BME280_temperature;BME280_humidity;BME280_pressure;Samples;Min_cycle;Max_cycle;Signal;HPM_P1;HPM_P2
2022/11/13 00:08:18;;;;;;;26.45;15.48;;;14.10;76.00;;;;;;21172476;28;20476;-62
2022/11/13 00:18:19;;;;;;;11.95;6.57;;;14.10;76.00;;;;;;21171552;28;20108;-62
2022/11/13 00:28:20;;;;;;;13.18;6.10;;;14.10;75.20;;;;;;21170365;28;20051;-62
2022/11/13 00:38:22;;;;;;;11.35;5.70;;;14.00;75.90;;;;;;21170138;28;20122;-62
2022/11/13 00:48:23;;;;;;;11.23;5.53;;;13.90;76.00;;;;;;21168574;28;20069;-63
2022/11/13 00:58:25;;;;;;;10.02;5.13;;;14.00;75.50;;;;;;21167787;28;20472;-62
2022/11/13 01:08:27;;;;;;;8.90;6.22;;;14.00;74.80;;;;;;21168065;28;20047;-63
2022/11/13 01:18:28;;;;;;;11.65;5.05;;;14.00;75.20;;;;;;21166758;28;20515;-63
2022/11/13 01:28:32;;;;;;;10.95;4.63;;;14.00;75.00;;;;;;21165617;28;20056;-62
2022/11/13 01:38:34;;;;;;;8.50;4.70;;;13.90;74.70;;;;;;21164871;28;20040;-62
2022/11/13 01:48:44;;;;;;;10.00;5.47;;;13.80;74.50;;;;;;21163198;28;20095;-62
2022/11/13 01:59:04;;;;;;;8.02;4.10;;;13.80;74.10;;;;;;21164076;28;20047;-63
2022/11/13 02:09:06;;;;;;;9.95;4.70;;;13.70;73.50;;;;;;21163151;28;20399;-64
2022/11/13 02:19:21;;;;;;;11.13;4.50;;;13.70;74.20;;;;;;21162112;28;20047;-62
2022/11/13 02:29:25;;;;;;;9.68;4.90;;;13.70;74.50;;;;;;21161530;28;20193;-62
2022/11/13 02:39:27;;;;;;;9.55;5.07;;;13.70;75.20;;;;;;21162508;28;20389;-63
2022/11/13 02:49:30;;;;;;;11.82;5.45;;;13.60;76.00;;;;;;21160938;28;20051;-62
2022/11/13 02:59:34;;;;;;;9.57;4.80;;;13.50;76.50;;;;;;21160456;28;20043;-62
2022/11/13 03:09:41;;;;;;;9.27;4.88;;;13.50;76.40;;;;;;21160292;28;20091;-62
2022/11/13 03:19:49;;;;;;;6.88;4.60;;;13.30;76.40;;;;;;21161639;28;20062;-62
2022/11/13 03:29:53;;;;;;;8.17;4.47;;;13.20;76.80;;;;;;21174982;28;20055;-62
2022/11/13 03:39:56;;;;;;;9.30;4.65;;;13.20;76.50;;;;;;21156832;28;20480;-61
2022/11/13 03:50:01;;;;;;;10.80;4.82;;;13.20;76.60;;;;;;21173197;28;20058;-62
2022/11/13 04:00:05;;;;;;;8.75;4.38;;;13.00;77.00;;;;;;21172161;28;20087;-62
2022/11/13 04:10:07;;;;;;;8.63;4.75;;;12.90;77.30;;;;;;21172062;28;20051;-62
2022/11/13 04:20:10;;;;;;;7.22;4.70;;;12.80;77.50;;;;;;21171056;28;20043;-62
2022/11/13 04:30:14;;;;;;;8.70;4.53;;;12.90;77.40;;;;;;21170293;28;20051;-62
2022/11/13 04:40:16;;;;;;;7.15;4.68;;;13.00;77.50;;;;;;21170383;28;20407;-62
2022/11/13 04:50:18;;;;;;;9.65;4.70;;;13.00;77.70;;;;;;21168256;28;20534;-62
2022/11/13 05:00:21;;;;;;;10.52;5.30;;;13.20;76.90;;;;;;21168494;28;20119;-62
2022/11/13 05:10:23;;;;;;;9.48;4.55;;;13.40;75.20;;;;;;21167173;28;20136;-63
2022/11/13 05:20:25;;;;;;;8.88;4.10;;;13.50;74.20;;;;;;21166012;28;20047;-62
2022/11/13 05:30:27;;;;;;;8.82;4.10;;;13.60;73.80;;;;;;21165394;28;20051;-62
2022/11/13 05:40:29;;;;;;;7.30;4.18;;;13.70;73.40;;;;;;21164957;28;20047;-61
2022/11/13 05:50:32;;;;;;;11.32;4.95;;;13.70;73.10;;;;;;21163324;28;20526;-62
2022/11/13 06:00:34;;;;;;;11.60;4.43;;;13.70;73.00;;;;;;21162504;28;20046;-62
2022/11/13 06:10:36;;;;;;;10.27;4.22;;;13.80;73.00;;;;;;21164493;28;20138;-63
2022/11/13 06:20:39;;;;;;;7.05;4.20;;;13.80;73.30;;;;;;21164134;28;20040;-62
2022/11/13 06:30:41;;;;;;;7.72;4.22;;;13.80;72.90;;;;;;21163721;28;20424;-62
2022/11/13 06:40:42;;;;;;;9.27;4.20;;;13.90;72.70;;;;;;21162504;28;20407;-63
2022/11/13 06:50:44;;;;;;;9.48;4.80;;;13.90;72.90;;;;;;21161018;28;20051;-62
2022/11/13 07:00:46;;;;;;;9.07;4.28;;;13.90;72.70;;;;;;21173890;28;20051;-63
2022/11/13 07:10:56;;;;;;;6.25;3.50;;;13.90;72.80;;;;;;21176596;28;20056;-62
2022/11/13 07:21:05;;;;;;;6.88;3.83;;;14.00;72.80;;;;;;21176851;28;20039;-62
2022/11/13 07:31:08;;;;;;;8.10;4.68;;;14.10;72.70;;;;;;21157994;28;20393;-62
2022/11/13 07:41:09;;;;;;;8.52;4.20;;;14.20;72.90;;;;;;21174867;28;20177;-62
2022/11/13 07:51:12;;;;;;;11.70;4.93;;;14.20;72.90;;;;;;21172713;28;20074;-62
2022/11/13 08:01:13;;;;;;;12.68;4.90;;;14.30;72.70;;;;;;21172828;28;20047;-63
2022/11/13 08:11:15;;;;;;;7.85;4.38;;;14.40;72.10;;;;;;21171094;28;20051;-62
2022/11/13 08:21:17;;;;;;;8.32;3.90;;;14.40;72.30;;;;;;21171366;28;20084;-62
2022/11/13 08:31:18;;;;;;;8.85;5.03;;;14.50;72.00;;;;;;21170140;28;20056;-63
2022/11/13 08:41:20;;;;;;;8.57;4.25;;;14.60;72.00;;;;;;21169801;28;20050;-61
2022/11/13 08:51:21;;;;;;;12.75;5.20;;;14.70;71.70;;;;;;21168500;28;20057;-63
2022/11/13 09:01:23;;;;;;;9.43;4.20;;;14.70;71.30;;;;;;21167722;28;20075;-63
2022/11/13 09:11:28;;;;;;;8.70;4.28;;;14.80;71.10;;;;;;21166707;28;20104;-62
2022/11/13 09:21:29;;;;;;;9.77;4.50;;;14.90;70.30;;;;;;21166786;28;20134;-60
2022/11/13 09:31:31;;;;;;;9.15;4.50;;;15.00;70.20;;;;;;21165765;28;20051;-64
2022/11/13 09:41:38;;;;;;;13.77;5.47;;;15.20;70.00;;;;;;21166000;28;20067;-62
2022/11/13 09:52:00;;;;;;;14.05;4.72;;;15.30;69.80;;;;;;21163028;28;20052;-63
2022/11/13 10:02:26;;;;;;;10.38;3.83;;;15.30;69.50;;;;;;21163325;28;20077;-62
2022/11/13 10:12:30;;;;;;;11.65;4.40;;;15.40;68.60;;;;;;21164132;28;20078;-62
2022/11/13 10:22:32;;;;;;;;;;;15.50;67.90;;;;;;21163555;28;20044;-63
2022/11/13 10:32:34;;;;;;;11.32;5.50;;;15.50;68.10;;;;;;21170568;28;19964;-64
2022/11/13 10:42:42;;;;;;;10.73;4.38;;;15.70;68.30;;;;;;21179413;28;20058;-62
2022/11/13 10:52:46;;;;;;;12.10;3.90;;;15.80;67.00;;;;;;21178106;28;20051;-63
2022/11/13 11:02:49;;;;;;;11.65;3.95;;;15.90;66.90;;;;;;21178289;28;20403;-63
2022/11/13 11:12:55;;;;;;;10.68;4.28;;;16.00;66.30;;;;;;21176786;28;20134;-63
2022/11/13 11:23:10;;;;;;;13.43;4.82;;;16.10;65.50;;;;;;21176033;28;20077;-64
2022/11/13 11:33:31;;;;;;;9.03;3.87;;;16.20;65.80;;;;;;21174993;28;20154;-63
2022/11/13 11:43:45;;;;;;;13.77;6.38;;;16.20;65.10;;;;;;21172750;28;20055;-62
2022/11/13 11:53:50;;;;;;;8.67;3.87;;;16.40;64.40;;;;;;21173552;28;20056;-63
2022/11/13 12:04:00;;;;;;;8.15;4.07;;;16.50;64.10;;;;;;21172000;28;20079;-63
2022/11/13 12:14:15;;;;;;;12.75;4.05;;;16.70;63.60;;;;;;21172110;28;20048;-63
2022/11/13 12:24:49;;;;;;;12.73;4.82;;;16.80;63.20;;;;;;21170931;28;20048;-62
2022/11/13 12:34:56;;;;;;;8.90;4.83;;;17.00;62.60;;;;;;20828447;28;20073;-62
2022/11/13 12:45:19;;;;;;;7.53;4.68;;;17.00;62.70;;;;;;20826911;28;20421;-62
2022/11/13 12:55:30;;;;;;;12.90;5.28;;;17.10;62.40;;;;;;20826026;28;20049;-63
2022/11/13 13:05:56;;;;;;;13.15;4.95;;;17.20;62.30;;;;;;20892398;28;20051;-63
2022/11/13 13:16:01;;;;;;;14.45;5.05;;;17.20;62.00;;;;;;21082366;28;20142;-63
2022/11/13 13:26:13;;;;;;;11.13;5.63;;;17.20;61.90;;;;;;21080588;28;20456;-64
2022/11/13 13:36:35;;;;;;;12.88;5.28;;;17.20;61.80;;;;;;21081688;28;20477;-62
2022/11/13 13:46:37;;;;;;;13.35;6.03;;;17.20;62.00;;;;;;21079079;28;20083;-61
2022/11/13 13:56:40;;;;;;;11.18;5.40;;;17.30;62.00;;;;;;21079686;28;20469;-64
2022/11/13 14:06:56;;;;;;;12.43;5.47;;;17.40;62.10;;;;;;21078439;28;20052;-61
2022/11/13 14:17:00;;;;;;;8.40;4.65;;;17.40;62.10;;;;;;21079852;28;20142;-63
2022/11/13 14:27:04;;;;;;;;;;;17.50;61.80;;;;;;21079647;28;20048;-61
2022/11/13 14:37:21;;;;;;;11.30;5.50;;;17.40;61.80;;;;;;21078603;28;20391;-64
2022/11/13 14:47:27;;;;;;;16.05;4.70;;;17.50;61.30;;;;;;21125329;28;20507;-61
2022/11/13 14:57:29;;;;;;;11.93;5.40;;;17.60;61.20;;;;;;21161902;28;20115;-65
2022/11/13 15:07:33;;;;;;;15.70;5.63;;;17.60;60.80;;;;;;21161634;28;20134;-65
2022/11/13 15:17:35;;;;;;;17.02;6.20;;;17.60;61.70;;;;;;21165939;28;20071;-62
2022/11/13 15:27:37;;;;;;;12.27;5.57;;;17.50;61.90;;;;;;21176717;28;20043;-63
2022/11/13 15:37:39;;;;;;;9.60;5.10;;;17.50;62.00;;;;;;21174762;28;20082;-62
2022/11/13 15:47:40;;;;;;;9.98;5.05;;;17.50;61.20;;;;;;21174087;28;20108;-63
2022/11/13 15:57:42;;;;;;;15.05;6.65;;;17.40;61.70;;;;;;21172391;28;20104;-62
2022/11/13 16:07:44;;;;;;;20.00;7.45;;;17.40;62.30;;;;;;21171948;28;20044;-62
2022/11/13 16:17:54;;;;;;;14.73;6.45;;;17.40;63.00;;;;;;21171825;28;20377;-62
2022/11/13 16:27:55;;;;;;;18.20;6.65;;;17.40;63.40;;;;;;21169277;28;20051;-64
2022/11/13 16:37:57;;;;;;;21.92;8.70;;;17.30;63.70;;;;;;21170107;28;20380;-63
2022/11/13 16:48:00;;;;;;;19.05;8.40;;;17.20;64.30;;;;;;21116190;28;20501;-64
2022/11/13 16:58:03;;;;;;;14.52;8.10;;;17.10;64.70;;;;;;21083628;28;20048;-63
2022/11/13 17:08:05;;;;;;;17.50;8.30;;;17.00;65.20;;;;;;21082657;28;20110;-62
2022/11/13 17:18:09;;;;;;;24.85;16.73;;;16.80;65.90;;;;;;21081379;28;20041;-63
2022/11/13 17:28:11;;;;;;;20.10;10.27;;;16.70;66.70;;;;;;21081413;28;20139;-63
2022/11/13 17:38:13;;;;;;;22.65;12.65;;;16.70;66.70;;;;;;21079551;28;20485;-62
2022/11/13 17:48:17;;;;;;;28.30;16.57;;;16.50;67.40;;;;;;21133516;28;20051;-63
2022/11/13 17:58:19;;;;;;;60.33;40.25;;;16.30;67.70;;;;;;21162038;28;20134;-62
2022/11/13 18:08:20;;;;;;;42.33;24.50;;;16.30;68.20;;;;;;21161903;28;20158;-64
2022/11/13 18:18:22;;;;;;;32.38;18.08;;;16.30;68.40;;;;;;21161767;28;20131;-62
2022/11/13 18:28:23;;;;;;;33.83;20.90;;;16.20;68.90;;;;;;21160778;28;20070;-64
2022/11/13 18:38:25;;;;;;;44.00;25.02;;;16.20;69.20;;;;;;21160535;28;20055;-64
2022/11/13 18:48:34;;;;;;;25.23;12.90;;;16.00;69.60;;;;;;21161326;28;20055;-63
2022/11/13 18:58:37;;;;;;;27.73;14.60;;;15.80;69.80;;;;;;21175783;28;20048;-64
2022/11/13 19:08:39;;;;;;;30.48;20.33;;;15.70;70.50;;;;;;21176985;28;20051;-64
2022/11/13 19:18:43;;;;;;;30.77;17.05;;;15.70;70.70;;;;;;21175127;28;20142;-62
2022/11/13 19:28:49;;;;;;;29.35;17.05;;;15.50;71.20;;;;;;21175579;28;20172;-63
2022/11/13 19:38:51;;;;;;;54.55;31.30;;;15.30;71.40;;;;;;21174237;28;20070;-62
2022/11/13 19:48:53;;;;;;;42.08;24.98;;;15.20;71.50;;;;;;21172578;28;20567;-64
2022/11/13 19:58:55;;;;;;;35.10;20.90;;;15.10;72.00;;;;;;21171705;28;20052;-63
2022/11/13 20:08:58;;;;;;;19.63;11.52;;;15.00;72.10;;;;;;21170906;28;20460;-62
2022/11/13 20:19:00;;;;;;;28.98;12.23;;;14.90;72.50;;;;;;21171019;28;20488;-62
2022/11/13 20:29:02;;;;;;;24.77;15.32;;;14.90;72.50;;;;;;21151914;28;20043;-63
2022/11/13 20:39:03;;;;;;;20.80;10.77;;;14.80;72.90;;;;;;21169516;28;20082;-61
2022/11/13 20:49:06;;;;;;;20.40;11.27;;;14.70;73.30;;;;;;21167907;28;20407;-63
2022/11/13 20:59:08;;;;;;;14.57;8.90;;;14.50;73.40;;;;;;21167213;28;20055;-63
2022/11/13 21:09:10;;;;;;;18.17;9.93;;;14.40;73.70;;;;;;21167270;28;20055;-62
2022/11/13 21:19:11;;;;;;;17.65;11.35;;;14.30;73.80;;;;;;21165548;28;20050;-62
2022/11/13 21:29:13;;;;;;;18.52;9.88;;;14.20;74.00;;;;;;21165377;28;20087;-62
2022/11/13 21:39:15;;;;;;;28.10;17.70;;;14.10;74.40;;;;;;21165231;28;20044;-61
2022/11/13 21:49:16;;;;;;;20.33;11.95;;;14.00;74.70;;;;;;21163579;28;20059;-62
2022/11/13 21:59:18;;;;;;;18.55;11.85;;;14.00;75.10;;;;;;21164353;28;20100;-62
2022/11/13 22:09:24;;;;;;;18.52;11.13;;;13.90;75.10;;;;;;21162529;28;20052;-63
2022/11/13 22:19:26;;;;;;;21.65;10.23;;;13.70;75.00;;;;;;21163295;28;20428;-61
2022/11/13 22:29:27;;;;;;;16.95;9.55;;;13.60;75.00;;;;;;21171169;28;20085;-62
2022/11/13 22:39:29;;;;;;;17.35;10.38;;;13.50;75.10;;;;;;21179648;28;20095;-64
2022/11/13 22:49:31;;;;;;;17.33;9.25;;;13.30;75.30;;;;;;21113699;28;20052;-65
2022/11/13 22:59:32;;;;;;;18.23;11.63;;;13.10;75.60;;;;;;21094119;28;20044;-66
2022/11/13 23:09:34;;;;;;;18.27;11.90;;;13.10;75.80;;;;;;21092806;28;20056;-63
2022/11/13 23:19:36;;;;;;;21.23;11.98;;;13.00;75.90;;;;;;21092146;28;20595;-63
2022/11/13 23:29:37;;;;;;;11.98;8.75;;;12.90;76.10;;;;;;21072577;28;20484;-62
2022/11/13 23:39:39;;;;;;;23.10;10.95;;;12.80;76.00;;;;;;21090277;28;20052;-64
2022/11/13 23:49:40;;;;;;;19.67;8.82;;;12.80;75.70;;;;;;21155965;28;20063;-64
2022/11/13 23:59:42;;;;;;;18.70;9.57;;;12.70;76.10;;;;;;21173247;28;20047;-61
